sensor_id;sensor_type;location;lat;lon;timestamp;P1;durP1;ratioP1;P2;durP2;ratioP2
68438;SDS011;55421;51.600;5.718;2022-09-09T00:01:08;1.80;;;1.40;;
68438;SDS011;55421;51.600;5.718;2022-09-09T00:04:15;1.40;;;1.30;;
68438;SDS011;55421;51.600;5.718;2022-09-09T00:07:03;1.70;;;1.50;;
68438;SDS011;55421;51.600;5.718;2022-09-09T00:09:44;3.80;;;1.40;;
68438;SDS011;55421;51.600;5.718;2022-09-09T00:12:25;1.80;;;1.40;;
68438;SDS011;55421;51.600;5.718;2022-09-09T00:15:07;1.90;;;1.40;;
68438;SDS011;55421;51.600;5.718;2022-09-09T00:17:50;1.50;;;1.40;;
68438;SDS011;55421;51.600;5.718;2022-09-09T00:20:32;1.50;;;1.30;;
68438;SDS011;55421;51.600;5.718;2022-09-09T00:23:21;4.60;;;1.60;;
68438;SDS011;55421;51.600;5.718;2022-09-09T00:26:19;2.20;;;1.60;;
68438;SDS011;55421;51.600;5.718;2022-09-09T00:31:38;3.20;;;1.40;;
68438;SDS011;55421;51.600;5.718;2022-09-09T00:34:12;3.40;;;1.50;;
68438;SDS011;55421;51.600;5.718;2022-09-09T00:36:43;5.00;;;1.50;;
68438;SDS011;55421;51.600;5.718;2022-09-09T00:39:38;3.30;;;1.60;;
68438;SDS011;55421;51.600;5.718;2022-09-09T00:42:24;2.00;;;1.70;;
68438;SDS011;55421;51.600;5.718;2022-09-09T00:48:08;2.80;;;1.50;;
68438;SDS011;55421;51.600;5.718;2022-09-09T00:50:46;1.80;;;1.50;;
68438;SDS011;55421;51.600;5.718;2022-09-09T00:56:22;2.00;;;1.40;;
68438;SDS011;55421;51.600;5.718;2022-09-09T00:59:08;2.30;;;1.50;;
68438;SDS011;55421;51.600;5.718;2022-09-09T01:01:38;5.10;;;1.80;;
68438;SDS011;55421;51.600;5.718;2022-09-09T01:04:11;3.00;;;2.10;;
68438;SDS011;55421;51.600;5.718;2022-09-09T01:06:45;1.60;;;1.50;;
68438;SDS011;55421;51.600;5.718;2022-09-09T01:09:38;1.90;;;1.50;;
68438;SDS011;55421;51.600;5.718;2022-09-09T01:12:23;3.50;;;1.50;;
68438;SDS011;55421;51.600;5.718;2022-09-09T01:17:53;3.00;;;2.00;;
68438;SDS011;55421;51.600;5.718;2022-09-09T01:20:36;2.20;;;1.90;;
68438;SDS011;55421;51.600;5.718;2022-09-09T01:26:42;1.50;;;1.40;;
68438;SDS011;55421;51.600;5.718;2022-09-09T01:29:18;2.70;;;1.70;;
68438;SDS011;55421;51.600;5.718;2022-09-09T01:32:01;1.70;;;1.60;;
68438;SDS011;55421;51.600;5.718;2022-09-09T01:34:48;1.90;;;1.60;;
68438;SDS011;55421;51.600;5.718;2022-09-09T01:37:16;1.80;;;1.60;;
68438;SDS011;55421;51.600;5.718;2022-09-09T01:39:44;6.50;;;1.30;;
68438;SDS011;55421;51.600;5.718;2022-09-09T01:42:13;1.70;;;1.30;;
68438;SDS011;55421;51.600;5.718;2022-09-09T01:44:42;1.30;;;1.20;;
68438;SDS011;55421;51.600;5.718;2022-09-09T01:47:09;2.70;;;1.50;;
68438;SDS011;55421;51.600;5.718;2022-09-09T01:49:35;2.30;;;1.30;;
68438;SDS011;55421;51.600;5.718;2022-09-09T01:52:02;2.50;;;1.40;;
68438;SDS011;55421;51.600;5.718;2022-09-09T01:54:31;2.20;;;1.40;;
68438;SDS011;55421;51.600;5.718;2022-09-09T01:57:20;3.10;;;1.50;;
68438;SDS011;55421;51.600;5.718;2022-09-09T02:00:13;5.80;;;1.30;;
68438;SDS011;55421;51.600;5.718;2022-09-09T02:03:05;3.00;;;1.60;;
68438;SDS011;55421;51.600;5.718;2022-09-09T02:05:48;4.00;;;1.70;;
68438;SDS011;55421;51.600;5.718;2022-09-09T02:08:24;3.30;;;1.40;;
68438;SDS011;55421;51.600;5.718;2022-09-09T02:11:16;4.50;;;2.00;;
68438;SDS011;55421;51.600;5.718;2022-09-09T02:13:48;4.20;;;1.70;;
68438;SDS011;55421;51.600;5.718;2022-09-09T02:16:26;2.80;;;1.40;;
68438;SDS011;55421;51.600;5.718;2022-09-09T02:19:03;5.60;;;1.50;;
68438;SDS011;55421;51.600;5.718;2022-09-09T02:22:02;2.90;;;1.60;;
68438;SDS011;55421;51.600;5.718;2022-09-09T02:24:34;1.80;;;1.60;;
68438;SDS011;55421;51.600;5.718;2022-09-09T02:27:05;3.80;;;1.70;;
68438;SDS011;55421;51.600;5.718;2022-09-09T02:29:39;4.10;;;1.90;;
68438;SDS011;55421;51.600;5.718;2022-09-09T02:32:15;4.40;;;2.20;;
68438;SDS011;55421;51.600;5.718;2022-09-09T02:34:53;2.70;;;1.70;;
68438;SDS011;55421;51.600;5.718;2022-09-09T02:37:27;3.60;;;1.80;;
68438;SDS011;55421;51.600;5.718;2022-09-09T02:39:58;6.00;;;1.80;;
68438;SDS011;55421;51.600;5.718;2022-09-09T02:42:24;3.70;;;2.20;;
68438;SDS011;55421;51.600;5.718;2022-09-09T02:44:51;5.60;;;2.20;;
68438;SDS011;55421;51.600;5.718;2022-09-09T02:47:32;5.60;;;1.70;;
68438;SDS011;55421;51.600;5.718;2022-09-09T02:50:23;6.20;;;2.20;;
68438;SDS011;55421;51.600;5.718;2022-09-09T02:53:17;7.50;;;1.80;;
68438;SDS011;55421;51.600;5.718;2022-09-09T02:56:09;4.40;;;2.20;;
68438;SDS011;55421;51.600;5.718;2022-09-09T02:58:41;3.40;;;1.80;;
68438;SDS011;55421;51.600;5.718;2022-09-09T03:01:08;5.40;;;2.00;;
68438;SDS011;55421;51.600;5.718;2022-09-09T03:03:35;4.70;;;2.00;;
68438;SDS011;55421;51.600;5.718;2022-09-09T03:06:02;6.10;;;2.00;;
68438;SDS011;55421;51.600;5.718;2022-09-09T03:08:28;3.00;;;1.80;;
68438;SDS011;55421;51.600;5.718;2022-09-09T03:10:55;2.90;;;1.80;;
68438;SDS011;55421;51.600;5.718;2022-09-09T03:13:24;3.80;;;2.00;;
68438;SDS011;55421;51.600;5.718;2022-09-09T03:15:51;7.10;;;2.00;;
68438;SDS011;55421;51.600;5.718;2022-09-09T03:18:17;2.10;;;1.90;;
68438;SDS011;55421;51.600;5.718;2022-09-09T03:20:46;4.70;;;2.30;;
68438;SDS011;55421;51.600;5.718;2022-09-09T03:23:17;4.00;;;2.00;;
68438;SDS011;55421;51.600;5.718;2022-09-09T03:25:47;4.40;;;2.00;;
68438;SDS011;55421;51.600;5.718;2022-09-09T03:28:15;3.30;;;1.90;;
68438;SDS011;55421;51.600;5.718;2022-09-09T03:30:41;4.50;;;1.90;;
68438;SDS011;55421;51.600;5.718;2022-09-09T03:33:08;6.40;;;2.40;;
68438;SDS011;55421;51.600;5.718;2022-09-09T03:35:34;4.80;;;2.40;;
68438;SDS011;55421;51.600;5.718;2022-09-09T03:38:01;4.10;;;2.20;;
68438;SDS011;55421;51.600;5.718;2022-09-09T03:40:28;3.60;;;1.90;;
68438;SDS011;55421;51.600;5.718;2022-09-09T03:42:54;3.90;;;2.10;;
68438;SDS011;55421;51.600;5.718;2022-09-09T03:45:20;2.80;;;2.20;;
68438;SDS011;55421;51.600;5.718;2022-09-09T03:47:47;4.60;;;1.90;;
68438;SDS011;55421;51.600;5.718;2022-09-09T03:50:13;6.80;;;2.70;;
68438;SDS011;55421;51.600;5.718;2022-09-09T03:52:40;5.00;;;2.20;;
68438;SDS011;55421;51.600;5.718;2022-09-09T03:55:08;6.90;;;2.00;;
68438;SDS011;55421;51.600;5.718;2022-09-09T03:57:35;6.90;;;1.90;;
68438;SDS011;55421;51.600;5.718;2022-09-09T04:00:05;5.60;;;2.50;;
68438;SDS011;55421;51.600;5.718;2022-09-09T04:02:33;3.40;;;2.20;;
68438;SDS011;55421;51.600;5.718;2022-09-09T04:05:00;5.90;;;1.80;;
68438;SDS011;55421;51.600;5.718;2022-09-09T04:07:27;4.50;;;1.90;;
68438;SDS011;55421;51.600;5.718;2022-09-09T04:09:54;5.70;;;2.10;;
68438;SDS011;55421;51.600;5.718;2022-09-09T04:12:20;4.10;;;1.80;;
68438;SDS011;55421;51.600;5.718;2022-09-09T04:14:48;4.90;;;1.90;;
68438;SDS011;55421;51.600;5.718;2022-09-09T04:17:15;6.60;;;2.20;;
68438;SDS011;55421;51.600;5.718;2022-09-09T04:19:42;4.80;;;2.20;;
68438;SDS011;55421;51.600;5.718;2022-09-09T04:22:09;10.10;;;2.20;;
68438;SDS011;55421;51.600;5.718;2022-09-09T04:24:35;2.80;;;2.00;;
68438;SDS011;55421;51.600;5.718;2022-09-09T04:27:02;3.50;;;2.00;;
68438;SDS011;55421;51.600;5.718;2022-09-09T04:29:28;5.40;;;2.00;;
68438;SDS011;55421;51.600;5.718;2022-09-09T04:31:55;5.10;;;2.10;;
68438;SDS011;55421;51.600;5.718;2022-09-09T04:34:21;5.70;;;2.00;;
68438;SDS011;55421;51.600;5.718;2022-09-09T04:36:48;10.70;;;2.20;;
68438;SDS011;55421;51.600;5.718;2022-09-09T04:39:14;7.80;;;2.10;;
68438;SDS011;55421;51.600;5.718;2022-09-09T04:41:40;7.60;;;2.30;;
68438;SDS011;55421;51.600;5.718;2022-09-09T04:44:07;3.20;;;1.90;;
68438;SDS011;55421;51.600;5.718;2022-09-09T04:46:33;6.80;;;2.60;;
68438;SDS011;55421;51.600;5.718;2022-09-09T04:49:03;6.70;;;2.10;;
68438;SDS011;55421;51.600;5.718;2022-09-09T04:51:29;7.70;;;2.00;;
68438;SDS011;55421;51.600;5.718;2022-09-09T04:53:57;6.10;;;2.00;;
68438;SDS011;55421;51.600;5.718;2022-09-09T04:56:24;7.80;;;2.10;;
68438;SDS011;55421;51.600;5.718;2022-09-09T04:58:52;5.80;;;2.20;;
68438;SDS011;55421;51.600;5.718;2022-09-09T05:01:20;7.90;;;2.30;;
68438;SDS011;55421;51.600;5.718;2022-09-09T05:03:49;7.40;;;2.20;;
68438;SDS011;55421;51.600;5.718;2022-09-09T05:06:19;6.30;;;2.20;;
68438;SDS011;55421;51.600;5.718;2022-09-09T05:08:47;7.10;;;2.20;;
68438;SDS011;55421;51.600;5.718;2022-09-09T05:11:19;6.00;;;1.90;;
68438;SDS011;55421;51.600;5.718;2022-09-09T05:13:51;6.30;;;2.00;;
68438;SDS011;55421;51.600;5.718;2022-09-09T05:16:19;6.80;;;1.60;;
68438;SDS011;55421;51.600;5.718;2022-09-09T05:18:46;4.80;;;1.80;;
68438;SDS011;55421;51.600;5.718;2022-09-09T05:21:18;7.90;;;2.00;;
68438;SDS011;55421;51.600;5.718;2022-09-09T05:23:47;4.60;;;1.90;;
68438;SDS011;55421;51.600;5.718;2022-09-09T05:26:19;4.90;;;2.20;;
68438;SDS011;55421;51.600;5.718;2022-09-09T05:28:47;5.90;;;1.60;;
68438;SDS011;55421;51.600;5.718;2022-09-09T05:31:15;5.70;;;2.00;;
68438;SDS011;55421;51.600;5.718;2022-09-09T05:33:45;9.60;;;2.40;;
68438;SDS011;55421;51.600;5.718;2022-09-09T05:36:16;2.80;;;1.60;;
68438;SDS011;55421;51.600;5.718;2022-09-09T05:38:44;4.70;;;1.80;;
68438;SDS011;55421;51.600;5.718;2022-09-09T05:41:12;4.70;;;1.90;;
68438;SDS011;55421;51.600;5.718;2022-09-09T05:43:41;6.10;;;2.00;;
68438;SDS011;55421;51.600;5.718;2022-09-09T05:46:12;3.40;;;1.60;;
68438;SDS011;55421;51.600;5.718;2022-09-09T05:48:43;5.50;;;1.80;;
68438;SDS011;55421;51.600;5.718;2022-09-09T05:51:14;11.00;;;2.20;;
68438;SDS011;55421;51.600;5.718;2022-09-09T05:53:45;5.90;;;2.10;;
68438;SDS011;55421;51.600;5.718;2022-09-09T05:56:16;9.60;;;2.00;;
68438;SDS011;55421;51.600;5.718;2022-09-09T05:59:05;7.10;;;2.10;;
68438;SDS011;55421;51.600;5.718;2022-09-09T06:01:34;3.70;;;1.90;;
68438;SDS011;55421;51.600;5.718;2022-09-09T06:04:02;4.50;;;1.50;;
68438;SDS011;55421;51.600;5.718;2022-09-09T06:06:31;6.80;;;1.90;;
68438;SDS011;55421;51.600;5.718;2022-09-09T06:09:03;5.70;;;1.90;;
68438;SDS011;55421;51.600;5.718;2022-09-09T06:11:39;6.00;;;2.00;;
68438;SDS011;55421;51.600;5.718;2022-09-09T06:14:07;4.90;;;1.70;;
68438;SDS011;55421;51.600;5.718;2022-09-09T06:16:34;6.10;;;2.00;;
68438;SDS011;55421;51.600;5.718;2022-09-09T06:19:03;5.00;;;1.80;;
68438;SDS011;55421;51.600;5.718;2022-09-09T06:21:32;7.00;;;2.10;;
68438;SDS011;55421;51.600;5.718;2022-09-09T06:24:00;4.40;;;1.60;;
68438;SDS011;55421;51.600;5.718;2022-09-09T06:26:30;6.30;;;2.10;;
68438;SDS011;55421;51.600;5.718;2022-09-09T06:29:07;3.80;;;1.40;;
68438;SDS011;55421;51.600;5.718;2022-09-09T06:31:35;4.80;;;1.50;;
68438;SDS011;55421;51.600;5.718;2022-09-09T06:34:06;7.50;;;2.00;;
68438;SDS011;55421;51.600;5.718;2022-09-09T06:36:36;7.50;;;2.30;;
68438;SDS011;55421;51.600;5.718;2022-09-09T06:39:05;8.00;;;2.00;;
68438;SDS011;55421;51.600;5.718;2022-09-09T06:41:33;6.90;;;2.30;;
68438;SDS011;55421;51.600;5.718;2022-09-09T06:43:59;5.50;;;2.50;;
68438;SDS011;55421;51.600;5.718;2022-09-09T06:46:29;8.40;;;2.10;;
68438;SDS011;55421;51.600;5.718;2022-09-09T06:48:58;6.30;;;1.80;;
68438;SDS011;55421;51.600;5.718;2022-09-09T06:51:28;7.70;;;2.30;;
68438;SDS011;55421;51.600;5.718;2022-09-09T06:54:00;9.40;;;1.80;;
68438;SDS011;55421;51.600;5.718;2022-09-09T06:56:30;3.20;;;1.50;;
68438;SDS011;55421;51.600;5.718;2022-09-09T06:59:04;4.90;;;2.10;;
68438;SDS011;55421;51.600;5.718;2022-09-09T07:01:33;5.80;;;1.80;;
68438;SDS011;55421;51.600;5.718;2022-09-09T07:04:02;5.10;;;1.90;;
68438;SDS011;55421;51.600;5.718;2022-09-09T07:06:32;6.60;;;2.50;;
68438;SDS011;55421;51.600;5.718;2022-09-09T07:09:06;5.20;;;2.30;;
68438;SDS011;55421;51.600;5.718;2022-09-09T07:11:41;8.90;;;2.30;;
68438;SDS011;55421;51.600;5.718;2022-09-09T07:14:10;11.30;;;2.10;;
68438;SDS011;55421;51.600;5.718;2022-09-09T07:16:43;5.20;;;1.80;;
68438;SDS011;55421;51.600;5.718;2022-09-09T07:19:12;8.10;;;2.20;;
68438;SDS011;55421;51.600;5.718;2022-09-09T07:21:40;4.10;;;1.70;;
68438;SDS011;55421;51.600;5.718;2022-09-09T07:24:07;5.70;;;1.70;;
68438;SDS011;55421;51.600;5.718;2022-09-09T07:26:37;6.50;;;1.90;;
68438;SDS011;55421;51.600;5.718;2022-09-09T07:29:06;11.00;;;2.80;;
68438;SDS011;55421;51.600;5.718;2022-09-09T07:31:35;4.60;;;1.70;;
68438;SDS011;55421;51.600;5.718;2022-09-09T07:34:04;8.20;;;2.00;;
68438;SDS011;55421;51.600;5.718;2022-09-09T07:36:34;9.80;;;2.20;;
68438;SDS011;55421;51.600;5.718;2022-09-09T07:39:04;11.00;;;2.10;;
68438;SDS011;55421;51.600;5.718;2022-09-09T07:41:36;7.30;;;1.80;;
68438;SDS011;55421;51.600;5.718;2022-09-09T07:44:08;4.40;;;1.90;;
68438;SDS011;55421;51.600;5.718;2022-09-09T07:46:38;3.30;;;1.10;;
68438;SDS011;55421;51.600;5.718;2022-09-09T07:49:05;8.90;;;1.50;;
68438;SDS011;55421;51.600;5.718;2022-09-09T07:51:34;6.30;;;1.70;;
68438;SDS011;55421;51.600;5.718;2022-09-09T07:54:05;7.70;;;2.30;;
68438;SDS011;55421;51.600;5.718;2022-09-09T07:56:36;7.30;;;2.00;;
68438;SDS011;55421;51.600;5.718;2022-09-09T07:59:04;7.40;;;1.60;;
68438;SDS011;55421;51.600;5.718;2022-09-09T08:01:38;7.60;;;1.80;;
68438;SDS011;55421;51.600;5.718;2022-09-09T08:04:09;6.30;;;1.60;;
68438;SDS011;55421;51.600;5.718;2022-09-09T08:06:44;4.60;;;1.70;;
68438;SDS011;55421;51.600;5.718;2022-09-09T08:09:13;6.20;;;1.60;;
68438;SDS011;55421;51.600;5.718;2022-09-09T08:11:41;6.60;;;1.70;;
68438;SDS011;55421;51.600;5.718;2022-09-09T08:14:10;6.20;;;1.60;;
68438;SDS011;55421;51.600;5.718;2022-09-09T08:16:40;4.40;;;1.30;;
68438;SDS011;55421;51.600;5.718;2022-09-09T08:19:10;6.30;;;1.60;;
68438;SDS011;55421;51.600;5.718;2022-09-09T08:21:39;3.90;;;1.20;;
68438;SDS011;55421;51.600;5.718;2022-09-09T08:24:07;3.50;;;1.20;;
68438;SDS011;55421;51.600;5.718;2022-09-09T08:26:39;6.50;;;1.80;;
68438;SDS011;55421;51.600;5.718;2022-09-09T08:29:11;3.10;;;1.50;;
68438;SDS011;55421;51.600;5.718;2022-09-09T08:31:45;6.30;;;1.70;;
68438;SDS011;55421;51.600;5.718;2022-09-09T08:34:14;5.90;;;1.60;;
68438;SDS011;55421;51.600;5.718;2022-09-09T08:36:43;5.00;;;1.40;;
68438;SDS011;55421;51.600;5.718;2022-09-09T08:39:14;4.80;;;1.40;;
68438;SDS011;55421;51.600;5.718;2022-09-09T08:47:54;5.30;;;1.80;;
68438;SDS011;55421;51.600;5.718;2022-09-09T08:50:38;5.90;;;1.20;;
68438;SDS011;55421;51.600;5.718;2022-09-09T08:53:28;4.50;;;1.20;;
68438;SDS011;55421;51.600;5.718;2022-09-09T08:56:12;3.90;;;1.50;;
68438;SDS011;55421;51.600;5.718;2022-09-09T08:58:48;5.10;;;1.60;;
68438;SDS011;55421;51.600;5.718;2022-09-09T09:07:40;4.80;;;1.30;;
68438;SDS011;55421;51.600;5.718;2022-09-09T09:10:49;3.90;;;1.30;;
68438;SDS011;55421;51.600;5.718;2022-09-09T09:13:20;3.70;;;1.40;;
68438;SDS011;55421;51.600;5.718;2022-09-09T09:15:57;6.10;;;1.50;;
68438;SDS011;55421;51.600;5.718;2022-09-09T09:18:28;6.50;;;1.70;;
68438;SDS011;55421;51.600;5.718;2022-09-09T09:23:58;3.70;;;1.20;;
68438;SDS011;55421;51.600;5.718;2022-09-09T09:26:35;5.10;;;1.50;;
68438;SDS011;55421;51.600;5.718;2022-09-09T09:29:14;3.10;;;1.10;;
68438;SDS011;55421;51.600;5.718;2022-09-09T09:31:45;8.80;;;1.50;;
68438;SDS011;55421;51.600;5.718;2022-09-09T09:34:17;2.90;;;1.40;;
68438;SDS011;55421;51.600;5.718;2022-09-09T09:36:52;5.10;;;1.30;;
68438;SDS011;55421;51.600;5.718;2022-09-09T09:39:28;5.80;;;1.50;;
68438;SDS011;55421;51.600;5.718;2022-09-09T09:41:56;5.60;;;1.70;;
68438;SDS011;55421;51.600;5.718;2022-09-09T09:44:30;7.40;;;1.20;;
68438;SDS011;55421;51.600;5.718;2022-09-09T09:47:12;5.60;;;1.90;;
68438;SDS011;55421;51.600;5.718;2022-09-09T09:50:00;6.70;;;1.50;;
68438;SDS011;55421;51.600;5.718;2022-09-09T09:52:29;6.10;;;1.50;;
68438;SDS011;55421;51.600;5.718;2022-09-09T09:54:58;5.80;;;1.70;;
68438;SDS011;55421;51.600;5.718;2022-09-09T09:57:28;5.30;;;2.20;;
68438;SDS011;55421;51.600;5.718;2022-09-09T10:00:02;6.20;;;1.70;;
68438;SDS011;55421;51.600;5.718;2022-09-09T10:02:41;5.80;;;1.30;;
68438;SDS011;55421;51.600;5.718;2022-09-09T10:08:00;7.20;;;1.40;;
68438;SDS011;55421;51.600;5.718;2022-09-09T10:16:42;5.10;;;1.50;;
68438;SDS011;55421;51.600;5.718;2022-09-09T10:19:29;4.90;;;1.30;;
68438;SDS011;55421;51.600;5.718;2022-09-09T10:22:22;4.90;;;1.60;;
68438;SDS011;55421;51.600;5.718;2022-09-09T10:25:55;4.90;;;1.60;;
68438;SDS011;55421;51.600;5.718;2022-09-09T10:32:08;5.20;;;1.50;;
68438;SDS011;55421;51.600;5.718;2022-09-09T10:50:03;2.90;;;1.20;;
68438;SDS011;55421;51.600;5.718;2022-09-09T10:55:51;3.60;;;1.20;;
68438;SDS011;55421;51.600;5.718;2022-09-09T10:58:29;6.40;;;1.60;;
68438;SDS011;55421;51.600;5.718;2022-09-09T11:01:06;5.60;;;1.50;;
68438;SDS011;55421;51.600;5.718;2022-09-09T11:03:43;4.80;;;1.90;;
68438;SDS011;55421;51.600;5.718;2022-09-09T11:06:19;7.20;;;2.10;;
68438;SDS011;55421;51.600;5.718;2022-09-09T11:08:51;4.30;;;1.40;;
68438;SDS011;55421;51.600;5.718;2022-09-09T11:11:41;3.90;;;1.40;;
68438;SDS011;55421;51.600;5.718;2022-09-09T11:14:45;5.10;;;1.50;;
68438;SDS011;55421;51.600;5.718;2022-09-09T11:17:23;4.70;;;1.40;;
68438;SDS011;55421;51.600;5.718;2022-09-09T11:19:54;4.90;;;1.70;;
68438;SDS011;55421;51.600;5.718;2022-09-09T11:22:31;4.50;;;1.50;;
68438;SDS011;55421;51.600;5.718;2022-09-09T11:37:17;7.30;;;2.40;;
68438;SDS011;55421;51.600;5.718;2022-09-09T11:40:20;3.40;;;1.30;;
68438;SDS011;55421;51.600;5.718;2022-09-09T11:43:03;3.90;;;1.50;;
68438;SDS011;55421;51.600;5.718;2022-09-09T11:45:40;3.10;;;1.50;;
68438;SDS011;55421;51.600;5.718;2022-09-09T11:48:32;3.40;;;1.40;;
68438;SDS011;55421;51.600;5.718;2022-09-09T11:51:09;2.00;;;1.00;;
68438;SDS011;55421;51.600;5.718;2022-09-09T11:53:50;4.10;;;1.30;;
68438;SDS011;55421;51.600;5.718;2022-09-09T11:56:28;3.00;;;1.00;;
68438;SDS011;55421;51.600;5.718;2022-09-09T11:58:58;2.20;;;1.10;;
68438;SDS011;55421;51.600;5.718;2022-09-09T12:01:36;3.50;;;1.30;;
68438;SDS011;55421;51.600;5.718;2022-09-09T12:04:12;4.00;;;1.30;;
68438;SDS011;55421;51.600;5.718;2022-09-09T12:06:50;4.50;;;1.20;;
68438;SDS011;55421;51.600;5.718;2022-09-09T12:09:29;2.20;;;0.90;;
68438;SDS011;55421;51.600;5.718;2022-09-09T12:17:30;2.30;;;1.40;;
68438;SDS011;55421;51.600;5.718;2022-09-09T12:20:13;2.80;;;1.40;;
68438;SDS011;55421;51.600;5.718;2022-09-09T12:25:53;2.00;;;1.10;;
68438;SDS011;55421;51.600;5.718;2022-09-09T12:28:45;5.60;;;1.50;;
68438;SDS011;55421;51.600;5.718;2022-09-09T12:34:38;5.20;;;1.50;;
68438;SDS011;55421;51.600;5.718;2022-09-09T12:40:23;2.20;;;1.00;;
68438;SDS011;55421;51.600;5.718;2022-09-09T12:42:51;5.30;;;1.50;;
68438;SDS011;55421;51.600;5.718;2022-09-09T12:45:38;4.90;;;1.70;;
68438;SDS011;55421;51.600;5.718;2022-09-09T12:48:08;3.10;;;1.40;;
68438;SDS011;55421;51.600;5.718;2022-09-09T12:50:48;2.60;;;1.40;;
68438;SDS011;55421;51.600;5.718;2022-09-09T12:53:22;2.50;;;1.10;;
68438;SDS011;55421;51.600;5.718;2022-09-09T12:55:56;2.70;;;1.30;;
68438;SDS011;55421;51.600;5.718;2022-09-09T12:58:26;4.00;;;1.40;;
68438;SDS011;55421;51.600;5.718;2022-09-09T13:00:55;6.80;;;1.50;;
68438;SDS011;55421;51.600;5.718;2022-09-09T13:03:26;3.10;;;1.40;;
68438;SDS011;55421;51.600;5.718;2022-09-09T13:05:56;4.60;;;1.80;;
68438;SDS011;55421;51.600;5.718;2022-09-09T13:08:26;5.60;;;1.40;;
68438;SDS011;55421;51.600;5.718;2022-09-09T13:10:59;3.00;;;0.90;;
68438;SDS011;55421;51.600;5.718;2022-09-09T13:13:35;3.80;;;1.40;;
68438;SDS011;55421;51.600;5.718;2022-09-09T13:16:06;3.10;;;1.70;;
68438;SDS011;55421;51.600;5.718;2022-09-09T13:18:44;5.00;;;1.40;;
68438;SDS011;55421;51.600;5.718;2022-09-09T13:21:10;4.20;;;1.30;;
68438;SDS011;55421;51.600;5.718;2022-09-09T13:23:37;3.80;;;1.10;;
68438;SDS011;55421;51.600;5.718;2022-09-09T13:26:06;4.00;;;1.40;;
68438;SDS011;55421;51.600;5.718;2022-09-09T13:28:48;3.40;;;1.30;;
68438;SDS011;55421;51.600;5.718;2022-09-09T13:31:29;3.30;;;1.50;;
68438;SDS011;55421;51.600;5.718;2022-09-09T13:33:58;4.20;;;1.70;;
68438;SDS011;55421;51.600;5.718;2022-09-09T13:36:34;4.30;;;1.40;;
68438;SDS011;55421;51.600;5.718;2022-09-09T13:39:03;3.80;;;1.80;;
68438;SDS011;55421;51.600;5.718;2022-09-09T13:44:02;4.60;;;1.60;;
68438;SDS011;55421;51.600;5.718;2022-09-09T13:46:40;1.80;;;1.20;;
68438;SDS011;55421;51.600;5.718;2022-09-09T13:51:42;4.20;;;1.60;;
68438;SDS011;55421;51.600;5.718;2022-09-09T13:54:13;4.40;;;1.60;;
68438;SDS011;55421;51.600;5.718;2022-09-09T13:56:41;2.60;;;1.50;;
68438;SDS011;55421;51.600;5.718;2022-09-09T13:59:16;2.70;;;1.40;;
68438;SDS011;55421;51.600;5.718;2022-09-09T14:01:46;4.40;;;1.40;;
68438;SDS011;55421;51.600;5.718;2022-09-09T14:04:13;5.70;;;1.40;;
68438;SDS011;55421;51.600;5.718;2022-09-09T14:06:41;4.10;;;1.10;;
68438;SDS011;55421;51.600;5.718;2022-09-09T14:09:12;1.50;;;0.80;;
68438;SDS011;55421;51.600;5.718;2022-09-09T14:11:42;5.10;;;1.40;;
68438;SDS011;55421;51.600;5.718;2022-09-09T14:14:08;5.00;;;1.20;;
68438;SDS011;55421;51.600;5.718;2022-09-09T14:16:35;4.80;;;1.50;;
68438;SDS011;55421;51.600;5.718;2022-09-09T14:19:02;3.20;;;1.30;;
68438;SDS011;55421;51.600;5.718;2022-09-09T14:21:29;3.50;;;1.20;;
68438;SDS011;55421;51.600;5.718;2022-09-09T14:23:55;2.20;;;1.30;;
68438;SDS011;55421;51.600;5.718;2022-09-09T14:26:24;2.90;;;1.40;;
68438;SDS011;55421;51.600;5.718;2022-09-09T14:28:52;4.40;;;1.20;;
68438;SDS011;55421;51.600;5.718;2022-09-09T14:31:18;2.60;;;1.30;;
68438;SDS011;55421;51.600;5.718;2022-09-09T14:33:45;2.40;;;1.20;;
68438;SDS011;55421;51.600;5.718;2022-09-09T14:36:12;2.30;;;1.20;;
68438;SDS011;55421;51.600;5.718;2022-09-09T14:38:39;2.50;;;1.10;;
68438;SDS011;55421;51.600;5.718;2022-09-09T14:41:06;3.20;;;1.10;;
68438;SDS011;55421;51.600;5.718;2022-09-09T14:43:35;3.80;;;1.10;;
68438;SDS011;55421;51.600;5.718;2022-09-09T14:46:09;3.80;;;1.10;;
68438;SDS011;55421;51.600;5.718;2022-09-09T14:48:37;4.20;;;1.40;;
68438;SDS011;55421;51.600;5.718;2022-09-09T14:51:08;2.40;;;1.20;;
68438;SDS011;55421;51.600;5.718;2022-09-09T14:53:36;5.90;;;1.40;;
68438;SDS011;55421;51.600;5.718;2022-09-09T14:56:05;1.60;;;1.20;;
68438;SDS011;55421;51.600;5.718;2022-09-09T14:58:33;2.80;;;1.30;;
68438;SDS011;55421;51.600;5.718;2022-09-09T15:01:04;3.10;;;1.60;;
68438;SDS011;55421;51.600;5.718;2022-09-09T15:03:33;3.10;;;0.80;;
68438;SDS011;55421;51.600;5.718;2022-09-09T15:06:05;3.00;;;1.40;;
68438;SDS011;55421;51.600;5.718;2022-09-09T15:08:39;4.80;;;1.50;;
68438;SDS011;55421;51.600;5.718;2022-09-09T15:11:07;2.30;;;0.90;;
68438;SDS011;55421;51.600;5.718;2022-09-09T15:13:34;3.20;;;1.20;;
68438;SDS011;55421;51.600;5.718;2022-09-09T15:16:08;3.20;;;1.30;;
68438;SDS011;55421;51.600;5.718;2022-09-09T15:18:35;2.90;;;1.20;;
68438;SDS011;55421;51.600;5.718;2022-09-09T15:21:05;4.60;;;1.30;;
68438;SDS011;55421;51.600;5.718;2022-09-09T15:23:32;6.10;;;1.40;;
68438;SDS011;55421;51.600;5.718;2022-09-09T15:26:00;4.20;;;1.20;;
68438;SDS011;55421;51.600;5.718;2022-09-09T15:28:27;2.90;;;1.10;;
68438;SDS011;55421;51.600;5.718;2022-09-09T15:30:54;2.70;;;1.20;;
68438;SDS011;55421;51.600;5.718;2022-09-09T15:33:22;2.80;;;1.30;;
68438;SDS011;55421;51.600;5.718;2022-09-09T15:35:49;2.60;;;1.30;;
68438;SDS011;55421;51.600;5.718;2022-09-09T15:38:16;1.90;;;1.20;;
68438;SDS011;55421;51.600;5.718;2022-09-09T15:40:44;3.00;;;1.10;;
68438;SDS011;55421;51.600;5.718;2022-09-09T15:43:12;2.50;;;1.30;;
68438;SDS011;55421;51.600;5.718;2022-09-09T15:45:39;3.30;;;1.10;;
68438;SDS011;55421;51.600;5.718;2022-09-09T15:48:05;2.00;;;0.60;;
68438;SDS011;55421;51.600;5.718;2022-09-09T15:50:32;1.60;;;0.60;;
68438;SDS011;55421;51.600;5.718;2022-09-09T15:52:59;1.30;;;0.40;;
68438;SDS011;55421;51.600;5.718;2022-09-09T15:55:26;1.00;;;0.50;;
68438;SDS011;55421;51.600;5.718;2022-09-09T15:57:52;1.00;;;0.40;;
68438;SDS011;55421;51.600;5.718;2022-09-09T16:00:19;0.90;;;0.50;;
68438;SDS011;55421;51.600;5.718;2022-09-09T16:02:47;1.70;;;0.50;;
68438;SDS011;55421;51.600;5.718;2022-09-09T16:05:13;1.50;;;0.50;;
68438;SDS011;55421;51.600;5.718;2022-09-09T16:07:40;1.30;;;0.80;;
68438;SDS011;55421;51.600;5.718;2022-09-09T16:10:08;0.70;;;0.60;;
68438;SDS011;55421;51.600;5.718;2022-09-09T16:12:36;2.20;;;0.50;;
68438;SDS011;55421;51.600;5.718;2022-09-09T16:15:03;0.30;;;0.30;;
68438;SDS011;55421;51.600;5.718;2022-09-09T16:17:30;1.10;;;0.70;;
68438;SDS011;55421;51.600;5.718;2022-09-09T16:19:56;1.90;;;0.50;;
68438;SDS011;55421;51.600;5.718;2022-09-09T16:22:23;1.40;;;0.50;;
68438;SDS011;55421;51.600;5.718;2022-09-09T16:24:50;3.00;;;0.60;;
68438;SDS011;55421;51.600;5.718;2022-09-09T16:27:16;2.30;;;0.70;;
68438;SDS011;55421;51.600;5.718;2022-09-09T16:29:43;0.90;;;0.60;;
68438;SDS011;55421;51.600;5.718;2022-09-09T16:32:09;1.30;;;0.60;;
68438;SDS011;55421;51.600;5.718;2022-09-09T16:34:37;1.30;;;0.60;;
68438;SDS011;55421;51.600;5.718;2022-09-09T16:37:03;0.80;;;0.60;;
68438;SDS011;55421;51.600;5.718;2022-09-09T16:39:30;2.80;;;0.60;;
68438;SDS011;55421;51.600;5.718;2022-09-09T16:41:56;1.60;;;0.60;;
68438;SDS011;55421;51.600;5.718;2022-09-09T16:44:23;1.60;;;0.70;;
68438;SDS011;55421;51.600;5.718;2022-09-09T16:46:52;1.80;;;0.90;;
68438;SDS011;55421;51.600;5.718;2022-09-09T16:49:18;2.00;;;1.00;;
68438;SDS011;55421;51.600;5.718;2022-09-09T16:51:47;2.30;;;1.00;;
68438;SDS011;55421;51.600;5.718;2022-09-09T16:54:16;1.30;;;1.10;;